sensor_id;sensor_type;location;lat;lon;timestamp;P1;durP1;ratioP1;P2;durP2;ratioP2
47129;SDS011;69689;48.122;11.542;2023-05-20T05:03:56;0.00;;;0.00;;
47129;SDS011;69689;48.122;11.542;2023-05-20T05:06:21;0.00;;;0.00;;
47129;SDS011;69689;48.122;11.542;2023-05-20T05:08:47;0.00;;;0.00;;
47129;SDS011;69689;48.122;11.542;2023-05-20T05:13:37;0.00;;;0.00;;
47129;SDS011;69689;48.122;11.542;2023-05-20T05:16:02;0.37;;;0.20;;
47129;SDS011;69689;48.122;11.542;2023-05-20T05:18:28;0.00;;;0.00;;
47129;SDS011;69689;48.122;11.542;2023-05-20T05:21:00;0.00;;;0.00;;
47129;SDS011;69689;48.122;11.542;2023-05-20T05:25:51;0.00;;;0.00;;
47129;SDS011;69689;48.122;11.542;2023-05-20T05:28:17;0.00;;;0.00;;
47129;SDS011;69689;48.122;11.542;2023-05-20T05:30:42;0.80;;;0.80;;
47129;SDS011;69689;48.122;11.542;2023-05-20T05:33:07;0.00;;;0.00;;
47129;SDS011;69689;48.122;11.542;2023-05-20T05:35:32;0.00;;;0.00;;
47129;SDS011;69689;48.122;11.542;2023-05-20T05:40:23;0.00;;;0.00;;
47129;SDS011;69689;48.122;11.542;2023-05-20T05:45:14;0.00;;;0.00;;
47129;SDS011;69689;48.122;11.542;2023-05-20T05:50:04;0.00;;;0.00;;
47129;SDS011;69689;48.122;11.542;2023-05-20T05:52:30;0.00;;;0.00;;
47129;SDS011;69689;48.122;11.542;2023-05-20T05:54:55;0.00;;;0.00;;
47129;SDS011;69689;48.122;11.542;2023-05-20T05:59:46;0.00;;;0.00;;
47129;SDS011;69689;48.122;11.542;2023-05-20T06:02:11;0.00;;;0.00;;
47129;SDS011;69689;48.122;11.542;2023-05-20T06:04:38;0.00;;;0.00;;
47129;SDS011;69689;48.122;11.542;2023-05-20T06:07:03;0.00;;;0.00;;
47129;SDS011;69689;48.122;11.542;2023-05-20T06:09:29;0.00;;;0.00;;
47129;SDS011;69689;48.122;11.542;2023-05-20T06:11:54;0.00;;;0.00;;
47129;SDS011;69689;48.122;11.542;2023-05-20T06:14:20;0.00;;;0.00;;
47129;SDS011;69689;48.122;11.542;2023-05-20T06:16:45;0.00;;;0.00;;
47129;SDS011;69689;48.122;11.542;2023-05-20T06:19:10;0.00;;;0.00;;
47129;SDS011;69689;48.122;11.542;2023-05-20T06:21:36;0.00;;;0.00;;
47129;SDS011;69689;48.122;11.542;2023-05-20T06:24:01;0.00;;;0.00;;
47129;SDS011;69689;48.122;11.542;2023-05-20T06:26:26;0.00;;;0.00;;
47129;SDS011;69689;48.122;11.542;2023-05-20T06:28:52;0.00;;;0.00;;
47129;SDS011;69689;48.122;11.542;2023-05-20T06:31:17;0.00;;;0.00;;
47129;SDS011;69689;48.122;11.542;2023-05-20T06:33:42;0.00;;;0.00;;
47129;SDS011;69689;48.122;11.542;2023-05-20T06:36:08;0.00;;;0.00;;
47129;SDS011;69689;48.122;11.542;2023-05-20T06:38:33;0.00;;;0.00;;
47129;SDS011;69689;48.122;11.542;2023-05-20T06:40:58;0.00;;;0.00;;
47129;SDS011;69689;48.122;11.542;2023-05-20T06:43:23;0.00;;;0.00;;
47129;SDS011;69689;48.122;11.542;2023-05-20T06:45:49;0.00;;;0.00;;
47129;SDS011;69689;48.122;11.542;2023-05-20T06:48:14;0.00;;;0.00;;
47129;SDS011;69689;48.122;11.542;2023-05-20T06:50:40;0.10;;;0.10;;
47129;SDS011;69689;48.122;11.542;2023-05-20T06:53:05;0.00;;;0.00;;
47129;SDS011;69689;48.122;11.542;2023-05-20T06:55:31;0.00;;;0.00;;
47129;SDS011;69689;48.122;11.542;2023-05-20T06:57:56;0.00;;;0.00;;
47129;SDS011;69689;48.122;11.542;2023-05-20T07:00:21;0.00;;;0.00;;
47129;SDS011;69689;48.122;11.542;2023-05-20T07:02:47;0.00;;;0.00;;
47129;SDS011;69689;48.122;11.542;2023-05-20T07:05:12;0.00;;;0.00;;
47129;SDS011;69689;48.122;11.542;2023-05-20T07:07:37;0.00;;;0.00;;
47129;SDS011;69689;48.122;11.542;2023-05-20T07:10:03;0.05;;;0.03;;
47129;SDS011;69689;48.122;11.542;2023-05-20T07:12:29;0.00;;;0.00;;
47129;SDS011;69689;48.122;11.542;2023-05-20T07:14:55;0.00;;;0.00;;
47129;SDS011;69689;48.122;11.542;2023-05-20T07:17:21;0.23;;;0.23;;
47129;SDS011;69689;48.122;11.542;2023-05-20T07:19:46;0.00;;;0.00;;
47129;SDS011;69689;48.122;11.542;2023-05-20T07:22:11;0.10;;;0.10;;
47129;SDS011;69689;48.122;11.542;2023-05-20T07:24:36;0.00;;;0.00;;
47129;SDS011;69689;48.122;11.542;2023-05-20T07:27:02;0.00;;;0.00;;
47129;SDS011;69689;48.122;11.542;2023-05-20T07:29:27;0.00;;;0.00;;
47129;SDS011;69689;48.122;11.542;2023-05-20T07:31:53;0.00;;;0.00;;
47129;SDS011;69689;48.122;11.542;2023-05-20T07:34:18;0.00;;;0.00;;
47129;SDS011;69689;48.122;11.542;2023-05-20T07:36:43;0.00;;;0.00;;
47129;SDS011;69689;48.122;11.542;2023-05-20T07:39:09;0.00;;;0.00;;
47129;SDS011;69689;48.122;11.542;2023-05-20T07:41:35;0.00;;;0.00;;
47129;SDS011;69689;48.122;11.542;2023-05-20T07:44:01;0.00;;;0.00;;
47129;SDS011;69689;48.122;11.542;2023-05-20T07:46:28;0.00;;;0.00;;
47129;SDS011;69689;48.122;11.542;2023-05-20T07:48:53;0.20;;;0.20;;
47129;SDS011;69689;48.122;11.542;2023-05-20T07:51:19;0.00;;;0.00;;
47129;SDS011;69689;48.122;11.542;2023-05-20T07:53:44;0.00;;;0.00;;
47129;SDS011;69689;48.122;11.542;2023-05-20T07:56:09;0.00;;;0.00;;
47129;SDS011;69689;48.122;11.542;2023-05-20T07:58:35;0.00;;;0.00;;
47129;SDS011;69689;48.122;11.542;2023-05-20T08:01:00;0.00;;;0.00;;
47129;SDS011;69689;48.122;11.542;2023-05-20T08:03:26;0.20;;;0.20;;
47129;SDS011;69689;48.122;11.542;2023-05-20T08:05:51;0.00;;;0.00;;
47129;SDS011;69689;48.122;11.542;2023-05-20T08:08:17;0.00;;;0.00;;
47129;SDS011;69689;48.122;11.542;2023-05-20T08:10:42;0.00;;;0.00;;
47129;SDS011;69689;48.122;11.542;2023-05-20T08:13:07;0.08;;;0.05;;
47129;SDS011;69689;48.122;11.542;2023-05-20T08:15:34;0.00;;;0.00;;
47129;SDS011;69689;48.122;11.542;2023-05-20T08:17:59;0.00;;;0.00;;
47129;SDS011;69689;48.122;11.542;2023-05-20T08:20:25;0.00;;;0.00;;
47129;SDS011;69689;48.122;11.542;2023-05-20T08:22:50;0.00;;;0.00;;
47129;SDS011;69689;48.122;11.542;2023-05-20T08:25:16;0.00;;;0.00;;
47129;SDS011;69689;48.122;11.542;2023-05-20T08:27:41;0.00;;;0.00;;
47129;SDS011;69689;48.122;11.542;2023-05-20T08:30:07;0.13;;;0.10;;
47129;SDS011;69689;48.122;11.542;2023-05-20T08:32:33;0.00;;;0.00;;
47129;SDS011;69689;48.122;11.542;2023-05-20T08:34:59;0.03;;;0.03;;
47129;SDS011;69689;48.122;11.542;2023-05-20T08:37:26;0.00;;;0.00;;
47129;SDS011;69689;48.122;11.542;2023-05-20T08:39:52;0.00;;;0.00;;
47129;SDS011;69689;48.122;11.542;2023-05-20T08:42:23;0.10;;;0.00;;
47129;SDS011;69689;48.122;11.542;2023-05-20T08:44:50;0.00;;;0.00;;
47129;SDS011;69689;48.122;11.542;2023-05-20T08:47:16;0.00;;;0.00;;
47129;SDS011;69689;48.122;11.542;2023-05-20T08:49:43;0.00;;;0.00;;
47129;SDS011;69689;48.122;11.542;2023-05-20T08:52:09;0.00;;;0.00;;
47129;SDS011;69689;48.122;11.542;2023-05-20T08:54:42;0.00;;;0.00;;
47129;SDS011;69689;48.122;11.542;2023-05-20T08:57:10;0.00;;;0.00;;
47129;SDS011;69689;48.122;11.542;2023-05-20T08:59:37;0.00;;;0.00;;
47129;SDS011;69689;48.122;11.542;2023-05-20T09:02:04;0.03;;;0.03;;
47129;SDS011;69689;48.122;11.542;2023-05-20T09:04:30;0.00;;;0.00;;
47129;SDS011;69689;48.122;11.542;2023-05-20T09:06:55;0.00;;;0.00;;
47129;SDS011;69689;48.122;11.542;2023-05-20T09:09:21;0.15;;;0.15;;
47129;SDS011;69689;48.122;11.542;2023-05-20T09:11:47;0.00;;;0.00;;
47129;SDS011;69689;48.122;11.542;2023-05-20T09:14:12;0.17;;;0.17;;
47129;SDS011;69689;48.122;11.542;2023-05-20T09:16:38;0.15;;;0.15;;
47129;SDS011;69689;48.122;11.542;2023-05-20T09:19:05;0.13;;;0.10;;
47129;SDS011;69689;48.122;11.542;2023-05-20T09:21:30;0.10;;;0.10;;
47129;SDS011;69689;48.122;11.542;2023-05-20T09:23:56;0.10;;;0.10;;
47129;SDS011;69689;48.122;11.542;2023-05-20T09:26:23;0.10;;;0.10;;
47129;SDS011;69689;48.122;11.542;2023-05-20T09:28:50;0.20;;;0.20;;
47129;SDS011;69689;48.122;11.542;2023-05-20T09:31:16;0.10;;;0.10;;
47129;SDS011;69689;48.122;11.542;2023-05-20T09:33:41;0.10;;;0.10;;
47129;SDS011;69689;48.122;11.542;2023-05-20T09:36:07;0.10;;;0.10;;
47129;SDS011;69689;48.122;11.542;2023-05-20T09:38:33;0.22;;;0.22;;
47129;SDS011;69689;48.122;11.542;2023-05-20T09:41:06;0.10;;;0.10;;
47129;SDS011;69689;48.122;11.542;2023-05-20T09:43:34;0.13;;;0.13;;
47129;SDS011;69689;48.122;11.542;2023-05-20T09:46:00;0.20;;;0.20;;
47129;SDS011;69689;48.122;11.542;2023-05-20T09:48:26;0.10;;;0.10;;
47129;SDS011;69689;48.122;11.542;2023-05-20T09:50:52;0.35;;;0.35;;
47129;SDS011;69689;48.122;11.542;2023-05-20T09:53:19;0.43;;;0.43;;
47129;SDS011;69689;48.122;11.542;2023-05-20T09:55:47;0.20;;;0.20;;
47129;SDS011;69689;48.122;11.542;2023-05-20T09:58:12;0.43;;;0.43;;
47129;SDS011;69689;48.122;11.542;2023-05-20T10:00:38;0.60;;;0.60;;
47129;SDS011;69689;48.122;11.542;2023-05-20T10:03:03;1.05;;;1.05;;
47129;SDS011;69689;48.122;11.542;2023-05-20T10:05:30;1.17;;;1.17;;
47129;SDS011;69689;48.122;11.542;2023-05-20T10:16:35;0.15;;;0.15;;
47129;SDS011;69689;48.122;11.542;2023-05-20T10:22:00;0.20;;;0.20;;
47129;SDS011;69689;48.122;11.542;2023-05-20T10:24:31;0.80;;;0.80;;
47129;SDS011;69689;48.122;11.542;2023-05-20T10:26:57;0.47;;;0.47;;
47129;SDS011;69689;48.122;11.542;2023-05-20T10:29:24;0.32;;;0.32;;
47129;SDS011;69689;48.122;11.542;2023-05-20T10:31:50;0.63;;;0.63;;
47129;SDS011;69689;48.122;11.542;2023-05-20T10:34:16;2.35;;;2.35;;
47129;SDS011;69689;48.122;11.542;2023-05-20T10:36:55;6.10;;;6.00;;
47129;SDS011;69689;48.122;11.542;2023-05-20T10:39:25;14.00;;;13.60;;
47129;SDS011;69689;48.122;11.542;2023-05-20T10:41:52;20.60;;;20.00;;
47129;SDS011;69689;48.122;11.542;2023-05-20T10:44:17;43.63;;;42.33;;
47129;SDS011;69689;48.122;11.542;2023-05-20T10:46:43;42.13;;;40.93;;
47129;SDS011;69689;48.122;11.542;2023-05-20T10:49:17;64.35;;;62.53;;
47129;SDS011;69689;48.122;11.542;2023-05-20T10:51:46;44.90;;;43.60;;
47129;SDS011;69689;48.122;11.542;2023-05-20T10:54:12;45.60;;;44.28;;
47129;SDS011;69689;48.122;11.542;2023-05-20T10:56:38;36.95;;;35.85;;
47129;SDS011;69689;48.122;11.542;2023-05-20T10:59:05;37.47;;;36.38;;
47129;SDS011;69689;48.122;11.542;2023-05-20T11:01:30;32.80;;;31.85;;
47129;SDS011;69689;48.122;11.542;2023-05-20T11:03:56;37.58;;;36.47;;
47129;SDS011;69689;48.122;11.542;2023-05-20T11:06:24;47.53;;;46.10;;
47129;SDS011;69689;48.122;11.542;2023-05-20T11:08:52;69.97;;;68.00;;
47129;SDS011;69689;48.122;11.542;2023-05-20T11:11:17;55.67;;;54.07;;
47129;SDS011;69689;48.122;11.542;2023-05-20T11:13:42;26.85;;;26.05;;
47129;SDS011;69689;48.122;11.542;2023-05-20T11:16:08;26.20;;;25.43;;
47129;SDS011;69689;48.122;11.542;2023-05-20T11:18:33;26.70;;;25.90;;
47129;SDS011;69689;48.122;11.542;2023-05-20T11:20:59;42.67;;;41.42;;
47129;SDS011;69689;48.122;11.542;2023-05-20T11:23:28;93.93;;;91.30;;
47129;SDS011;69689;48.122;11.542;2023-05-20T11:25:54;148.60;;;144.75;;
47129;SDS011;69689;48.122;11.542;2023-05-20T11:28:21;257.95;;;251.80;;
47129;SDS011;69689;48.122;11.542;2023-05-20T11:30:47;370.00;;;361.65;;
47129;SDS011;69689;48.122;11.542;2023-05-20T11:33:14;418.98;;;409.65;;
47129;SDS011;69689;48.122;11.542;2023-05-20T11:35:47;414.52;;;405.38;;
47129;SDS011;69689;48.122;11.542;2023-05-20T11:38:14;327.08;;;319.58;;
47129;SDS011;69689;48.122;11.542;2023-05-20T11:40:50;320.40;;;312.95;;
47129;SDS011;69689;48.122;11.542;2023-05-20T11:43:16;317.88;;;310.48;;
47129;SDS011;69689;48.122;11.542;2023-05-20T11:45:43;362.23;;;353.90;;
47129;SDS011;69689;48.122;11.542;2023-05-20T11:48:10;417.05;;;407.88;;
47129;SDS011;69689;48.122;11.542;2023-05-20T11:50:39;412.02;;;402.88;;
47129;SDS011;69689;48.122;11.542;2023-05-20T11:53:07;469.70;;;459.50;;
47129;SDS011;69689;48.122;11.542;2023-05-20T11:55:33;429.58;;;420.17;;
47129;SDS011;69689;48.122;11.542;2023-05-20T11:57:59;336.83;;;329.05;;
47129;SDS011;69689;48.122;11.542;2023-05-20T12:00:25;445.20;;;435.55;;
47129;SDS011;69689;48.122;11.542;2023-05-20T12:02:51;490.27;;;479.73;;
47129;SDS011;69689;48.122;11.542;2023-05-20T12:05:16;486.95;;;476.35;;
47129;SDS011;69689;48.122;11.542;2023-05-20T12:07:42;528.45;;;517.10;;
47129;SDS011;69689;48.122;11.542;2023-05-20T12:10:07;546.28;;;534.50;;
47129;SDS011;69689;48.122;11.542;2023-05-20T12:12:33;546.40;;;534.63;;
47129;SDS011;69689;48.122;11.542;2023-05-20T12:15:00;460.70;;;450.55;;
47129;SDS011;69689;48.122;11.542;2023-05-20T12:17:26;322.60;;;315.23;;
47129;SDS011;69689;48.122;11.542;2023-05-20T12:19:51;270.80;;;264.37;;
47129;SDS011;69689;48.122;11.542;2023-05-20T12:22:17;240.50;;;234.67;;
47129;SDS011;69689;48.122;11.542;2023-05-20T12:24:42;225.93;;;220.43;;
47129;SDS011;69689;48.122;11.542;2023-05-20T12:27:07;256.77;;;250.67;;
47129;SDS011;69689;48.122;11.542;2023-05-20T12:29:33;200.13;;;195.20;;
47129;SDS011;69689;48.122;11.542;2023-05-20T12:31:58;130.75;;;127.28;;
47129;SDS011;69689;48.122;11.542;2023-05-20T12:34:24;117.82;;;114.68;;
47129;SDS011;69689;48.122;11.542;2023-05-20T12:36:50;91.17;;;88.63;;
47129;SDS011;69689;48.122;11.542;2023-05-20T12:39:15;98.70;;;96.00;;
47129;SDS011;69689;48.122;11.542;2023-05-20T12:41:42;100.05;;;97.30;;
47129;SDS011;69689;48.122;11.542;2023-05-20T12:44:07;75.30;;;73.18;;
47129;SDS011;69689;48.122;11.542;2023-05-20T12:46:33;127.22;;;123.82;;
47129;SDS011;69689;48.122;11.542;2023-05-20T12:48:59;132.23;;;128.70;;
47129;SDS011;69689;48.122;11.542;2023-05-20T12:51:25;105.22;;;102.38;;
47129;SDS011;69689;48.122;11.542;2023-05-20T12:53:50;79.10;;;76.90;;
47129;SDS011;69689;48.122;11.542;2023-05-20T12:56:15;105.07;;;102.23;;
47129;SDS011;69689;48.122;11.542;2023-05-20T12:58:40;114.22;;;111.13;;
47129;SDS011;69689;48.122;11.542;2023-05-20T13:01:06;104.37;;;101.57;;
47129;SDS011;69689;48.122;11.542;2023-05-20T13:03:31;123.57;;;120.27;;
47129;SDS011;69689;48.122;11.542;2023-05-20T13:05:56;165.20;;;161.00;;
47129;SDS011;69689;48.122;11.542;2023-05-20T13:08:23;211.05;;;205.88;;
47129;SDS011;69689;48.122;11.542;2023-05-20T13:10:48;235.83;;;230.10;;
47129;SDS011;69689;48.122;11.542;2023-05-20T13:13:13;292.00;;;285.17;;
47129;SDS011;69689;48.122;11.542;2023-05-20T13:15:45;264.92;;;258.63;;
47129;SDS011;69689;48.122;11.542;2023-05-20T13:18:10;313.33;;;306.08;;
47129;SDS011;69689;48.122;11.542;2023-05-20T13:20:36;326.13;;;318.63;;
47129;SDS011;69689;48.122;11.542;2023-05-20T13:23:01;389.48;;;380.80;;
47129;SDS011;69689;48.122;11.542;2023-05-20T13:25:27;386.13;;;377.47;;
47129;SDS011;69689;48.122;11.542;2023-05-20T13:27:53;419.88;;;410.67;;
47129;SDS011;69689;48.122;11.542;2023-05-20T13:30:18;344.00;;;336.17;;
47129;SDS011;69689;48.122;11.542;2023-05-20T13:32:43;285.10;;;278.40;;
47129;SDS011;69689;48.122;11.542;2023-05-20T13:35:08;218.15;;;212.80;;
47129;SDS011;69689;48.122;11.542;2023-05-20T13:37:34;144.68;;;140.90;;
47129;SDS011;69689;48.122;11.542;2023-05-20T13:39:59;81.35;;;79.05;;
47129;SDS011;69689;48.122;11.542;2023-05-20T13:42:25;65.33;;;63.43;;
47129;SDS011;69689;48.122;11.542;2023-05-20T13:44:50;49.50;;;48.00;;
47129;SDS011;69689;48.122;11.542;2023-05-20T13:47:15;46.90;;;45.50;;
47129;SDS011;69689;48.122;11.542;2023-05-20T13:49:40;39.60;;;38.43;;
47129;SDS011;69689;48.122;11.542;2023-05-20T13:52:06;22.23;;;21.63;;
47129;SDS011;69689;48.122;11.542;2023-05-20T13:54:31;10.63;;;10.33;;
47129;SDS011;69689;48.122;11.542;2023-05-20T13:56:56;4.77;;;4.67;;
47129;SDS011;69689;48.122;11.542;2023-05-20T13:59:22;2.45;;;2.45;;
47129;SDS011;69689;48.122;11.542;2023-05-20T14:01:47;1.13;;;1.13;;
47129;SDS011;69689;48.122;11.542;2023-05-20T14:04:12;1.40;;;1.40;;
47129;SDS011;69689;48.122;11.542;2023-05-20T14:06:39;0.50;;;0.50;;
47129;SDS011;69689;48.122;11.542;2023-05-20T14:09:05;0.20;;;0.20;;
47129;SDS011;69689;48.122;11.542;2023-05-20T14:11:30;0.38;;;0.20;;
47129;SDS011;69689;48.122;11.542;2023-05-20T14:13:56;0.10;;;0.10;;
47129;SDS011;69689;48.122;11.542;2023-05-20T14:16:21;0.20;;;0.20;;
47129;SDS011;69689;48.122;11.542;2023-05-20T14:18:46;0.10;;;0.10;;
47129;SDS011;69689;48.122;11.542;2023-05-20T14:21:12;0.73;;;0.73;;
47129;SDS011;69689;48.122;11.542;2023-05-20T14:23:39;0.10;;;0.10;;
47129;SDS011;69689;48.122;11.542;2023-05-20T14:26:08;0.10;;;0.10;;
47129;SDS011;69689;48.122;11.542;2023-05-20T14:28:33;0.20;;;0.20;;
47129;SDS011;69689;48.122;11.542;2023-05-20T14:30:59;0.07;;;0.07;;
47129;SDS011;69689;48.122;11.542;2023-05-20T14:33:24;0.00;;;0.00;;
47129;SDS011;69689;48.122;11.542;2023-05-20T14:35:49;0.10;;;0.10;;
47129;SDS011;69689;48.122;11.542;2023-05-20T14:38:15;0.38;;;0.10;;
47129;SDS011;69689;48.122;11.542;2023-05-20T14:40:40;0.10;;;0.10;;
47129;SDS011;69689;48.122;11.542;2023-05-20T14:43:06;0.00;;;0.00;;
47129;SDS011;69689;48.122;11.542;2023-05-20T14:45:31;0.40;;;0.40;;
47129;SDS011;69689;48.122;11.542;2023-05-20T14:47:56;0.27;;;0.17;;
47129;SDS011;69689;48.122;11.542;2023-05-20T14:50:21;0.00;;;0.00;;
47129;SDS011;69689;48.122;11.542;2023-05-20T14:52:48;0.10;;;0.10;;
47129;SDS011;69689;48.122;11.542;2023-05-20T14:55:13;0.08;;;0.08;;
47129;SDS011;69689;48.122;11.542;2023-05-20T14:57:38;0.10;;;0.10;;
47129;SDS011;69689;48.122;11.542;2023-05-20T15:00:04;0.10;;;0.10;;
47129;SDS011;69689;48.122;11.542;2023-05-20T15:02:30;0.13;;;0.13;;
47129;SDS011;69689;48.122;11.542;2023-05-20T15:04:55;0.10;;;0.10;;
47129;SDS011;69689;48.122;11.542;2023-05-20T15:07:20;0.20;;;0.20;;
47129;SDS011;69689;48.122;11.542;2023-05-20T15:09:45;0.23;;;0.23;;
47129;SDS011;69689;48.122;11.542;2023-05-20T15:12:11;0.20;;;0.20;;
47129;SDS011;69689;48.122;11.542;2023-05-20T15:14:36;0.20;;;0.20;;
47129;SDS011;69689;48.122;11.542;2023-05-20T15:17:02;0.10;;;0.10;;
47129;SDS011;69689;48.122;11.542;2023-05-20T15:19:28;0.15;;;0.15;;
47129;SDS011;69689;48.122;11.542;2023-05-20T15:21:55;0.20;;;0.20;;
47129;SDS011;69689;48.122;11.542;2023-05-20T15:24:20;0.10;;;0.10;;
47129;SDS011;69689;48.122;11.542;2023-05-20T15:26:46;0.10;;;0.10;;
47129;SDS011;69689;48.122;11.542;2023-05-20T15:29:11;0.20;;;0.20;;
47129;SDS011;69689;48.122;11.542;2023-05-20T15:31:37;0.10;;;0.10;;
47129;SDS011;69689;48.122;11.542;2023-05-20T15:34:02;0.10;;;0.10;;
47129;SDS011;69689;48.122;11.542;2023-05-20T15:36:27;0.10;;;0.10;;
47129;SDS011;69689;48.122;11.542;2023-05-20T15:38:53;0.05;;;0.05;;
47129;SDS011;69689;48.122;11.542;2023-05-20T15:41:18;0.10;;;0.10;;
47129;SDS011;69689;48.122;11.542;2023-05-20T15:43:45;0.10;;;0.10;;
47129;SDS011;69689;48.122;11.542;2023-05-20T15:46:10;0.22;;;0.22;;
47129;SDS011;69689;48.122;11.542;2023-05-20T15:48:36;1.50;;;1.50;;
47129;SDS011;69689;48.122;11.542;2023-05-20T15:51:02;2.45;;;2.45;;
47129;SDS011;69689;48.122;11.542;2023-05-20T15:53:28;2.80;;;2.80;;
47129;SDS011;69689;48.122;11.542;2023-05-20T15:55:53;2.67;;;2.67;;
47129;SDS011;69689;48.122;11.542;2023-05-20T15:58:18;3.50;;;3.43;;
47129;SDS011;69689;48.122;11.542;2023-05-20T16:00:44;2.75;;;2.75;;
47129;SDS011;69689;48.122;11.542;2023-05-20T16:03:09;2.33;;;2.33;;
47129;SDS011;69689;48.122;11.542;2023-05-20T16:05:35;1.70;;;1.70;;
47129;SDS011;69689;48.122;11.542;2023-05-20T16:08:01;1.30;;;1.30;;
47129;SDS011;69689;48.122;11.542;2023-05-20T16:10:26;0.75;;;0.75;;
47129;SDS011;69689;48.122;11.542;2023-05-20T16:12:56;1.30;;;1.00;;
47129;SDS011;69689;48.122;11.542;2023-05-20T16:15:23;0.50;;;0.50;;
47129;SDS011;69689;48.122;11.542;2023-05-20T16:17:48;0.30;;;0.30;;
47129;SDS011;69689;48.122;11.542;2023-05-20T16:20:13;0.10;;;0.10;;
47129;SDS011;69689;48.122;11.542;2023-05-20T16:22:38;0.00;;;0.00;;
47129;SDS011;69689;48.122;11.542;2023-05-20T16:25:04;0.10;;;0.10;;
47129;SDS011;69689;48.122;11.542;2023-05-20T16:27:30;0.00;;;0.00;;
47129;SDS011;69689;48.122;11.542;2023-05-20T16:29:56;0.03;;;0.03;;
47129;SDS011;69689;48.122;11.542;2023-05-20T16:32:21;0.00;;;0.00;;
47129;SDS011;69689;48.122;11.542;2023-05-20T16:34:47;0.00;;;0.00;;
47129;SDS011;69689;48.122;11.542;2023-05-20T16:37:13;0.45;;;0.45;;
47129;SDS011;69689;48.122;11.542;2023-05-20T16:39:38;0.00;;;0.00;;
47129;SDS011;69689;48.122;11.542;2023-05-20T16:42:04;0.00;;;0.00;;
47129;SDS011;69689;48.122;11.542;2023-05-20T16:44:29;0.00;;;0.00;;
47129;SDS011;69689;48.122;11.542;2023-05-20T16:46:55;0.00;;;0.00;;
47129;SDS011;69689;48.122;11.542;2023-05-20T16:49:20;0.00;;;0.00;;
47129;SDS011;69689;48.122;11.542;2023-05-20T16:51:45;0.00;;;0.00;;
47129;SDS011;69689;48.122;11.542;2023-05-20T16:54:11;0.00;;;0.00;;
47129;SDS011;69689;48.122;11.542;2023-05-20T16:56:36;0.00;;;0.00;;
47129;SDS011;69689;48.122;11.542;2023-05-20T16:59:01;0.00;;;0.00;;
47129;SDS011;69689;48.122;11.542;2023-05-20T17:01:27;0.00;;;0.00;;
47129;SDS011;69689;48.122;11.542;2023-05-20T17:03:53;0.00;;;0.00;;
47129;SDS011;69689;48.122;11.542;2023-05-20T17:06:18;0.00;;;0.00;;
47129;SDS011;69689;48.122;11.542;2023-05-20T17:08:43;0.00;;;0.00;;
47129;SDS011;69689;48.122;11.542;2023-05-20T17:11:09;0.07;;;0.07;;
47129;SDS011;69689;48.122;11.542;2023-05-20T17:13:34;0.03;;;0.03;;
47129;SDS011;69689;48.122;11.542;2023-05-20T17:15:59;0.00;;;0.00;;
47129;SDS011;69689;48.122;11.542;2023-05-20T17:18:24;0.00;;;0.00;;
47129;SDS011;69689;48.122;11.542;2023-05-20T17:20:50;0.00;;;0.00;;
47129;SDS011;69689;48.122;11.542;2023-05-20T17:23:15;0.00;;;0.00;;
47129;SDS011;69689;48.122;11.542;2023-05-20T17:25:40;0.00;;;0.00;;
47129;SDS011;69689;48.122;11.542;2023-05-20T17:28:06;0.00;;;0.00;;
47129;SDS011;69689;48.122;11.542;2023-05-20T17:30:31;0.10;;;0.00;;
47129;SDS011;69689;48.122;11.542;2023-05-20T17:32:56;0.00;;;0.00;;
47129;SDS011;69689;48.122;11.542;2023-05-20T17:35:22;0.00;;;0.00;;
47129;SDS011;69689;48.122;11.542;2023-05-20T17:37:50;0.50;;;0.10;;
47129;SDS011;69689;48.122;11.542;2023-05-20T17:40:17;0.00;;;0.00;;
47129;SDS011;69689;48.122;11.542;2023-05-20T17:42:42;0.00;;;0.00;;
47129;SDS011;69689;48.122;11.542;2023-05-20T17:45:08;0.00;;;0.00;;
47129;SDS011;69689;48.122;11.542;2023-05-20T17:47:33;0.00;;;0.00;;
47129;SDS011;69689;48.122;11.542;2023-05-20T17:49:59;0.00;;;0.00;;
47129;SDS011;69689;48.122;11.542;2023-05-20T17:52:26;0.10;;;0.10;;
47129;SDS011;69689;48.122;11.542;2023-05-20T17:54:51;0.00;;;0.00;;
47129;SDS011;69689;48.122;11.542;2023-05-20T17:57:16;0.00;;;0.00;;
47129;SDS011;69689;48.122;11.542;2023-05-20T17:59:42;0.00;;;0.00;;
47129;SDS011;69689;48.122;11.542;2023-05-20T18:02:09;0.30;;;0.30;;
47129;SDS011;69689;48.122;11.542;2023-05-20T18:04:34;0.87;;;0.10;;
47129;SDS011;69689;48.122;11.542;2023-05-20T18:06:59;0.00;;;0.00;;
47129;SDS011;69689;48.122;11.542;2023-05-20T18:09:25;0.10;;;0.10;;
47129;SDS011;69689;48.122;11.542;2023-05-20T18:11:50;0.00;;;0.00;;
47129;SDS011;69689;48.122;11.542;2023-05-20T18:14:15;0.00;;;0.00;;
47129;SDS011;69689;48.122;11.542;2023-05-20T18:16:42;0.13;;;0.13;;
47129;SDS011;69689;48.122;11.542;2023-05-20T18:19:07;1.20;;;0.10;;
47129;SDS011;69689;48.122;11.542;2023-05-20T18:21:33;0.00;;;0.00;;
47129;SDS011;69689;48.122;11.542;2023-05-20T18:23:59;0.00;;;0.00;;
47129;SDS011;69689;48.122;11.542;2023-05-20T18:26:24;2.22;;;0.10;;
47129;SDS011;69689;48.122;11.542;2023-05-20T18:28:50;0.00;;;0.00;;
47129;SDS011;69689;48.122;11.542;2023-05-20T18:31:15;0.00;;;0.00;;
47129;SDS011;69689;48.122;11.542;2023-05-20T18:33:40;0.07;;;0.07;;
47129;SDS011;69689;48.122;11.542;2023-05-20T18:36:06;0.00;;;0.00;;
47129;SDS011;69689;48.122;11.542;2023-05-20T18:38:32;0.00;;;0.00;;
47129;SDS011;69689;48.122;11.542;2023-05-20T18:40:57;0.00;;;0.00;;
47129;SDS011;69689;48.122;11.542;2023-05-20T18:43:23;0.00;;;0.00;;
47129;SDS011;69689;48.122;11.542;2023-05-20T18:45:48;0.00;;;0.00;;
47129;SDS011;69689;48.122;11.542;2023-05-20T18:48:14;0.00;;;0.00;;
47129;SDS011;69689;48.122;11.542;2023-05-20T18:50:39;0.00;;;0.00;;
47129;SDS011;69689;48.122;11.542;2023-05-20T18:53:05;0.00;;;0.00;;
47129;SDS011;69689;48.122;11.542;2023-05-20T18:55:30;0.10;;;0.07;;
47129;SDS011;69689;48.122;11.542;2023-05-20T19:00:21;0.00;;;0.00;;
